Flight Track Log - Related Links

Times and Time Zones

All times are in EST time to prevent confusion due to time zone crossing. See the RPA3436 flight status page for this flight to view local times or setup timezone preferences in your user account.

Time Position Orientation Groundspeed Altitude Reporting Facility
EST Latitude Longitude Course Direction KTS MPH feet Rate Location/Type
Tue 07:59:00 AM 33.1501 -79.9500 North  Level FlightAware Approximate
Tue 07:59:10 AM 33.0500 -80.0078 13° North 287 330 5,300  Level Jacksonville Center
Tue 08:00:00 AM 33.2403 -79.9286 North  Level FlightAware Approximate
Tue 08:00:10 AM 33.1183 -79.9808 18° North 287 330 8,900  Level Jacksonville Center
Tue 08:01:00 AM 33.3294 -79.9020 23° Northeast  Level FlightAware Approximate
Tue 08:01:10 AM 33.1969 -79.9536 16° North 282 325 10,800  Level Jacksonville Center
Tue 08:02:00 AM 33.4180 -79.8731 North  Level FlightAware Approximate
Tue 08:02:10 AM 33.2772 -79.9061 26° Northeast 301 346 13,000  Level Jacksonville Center
Tue 08:03:00 AM 33.5084 -79.8500 13° North  Level FlightAware Approximate
Tue 08:03:10 AM 33.3636 -79.8561 26° Northeast 321 369 15,400  Level Jacksonville Center
Tue 08:04:10 AM 33.4542 -79.8031 26° Northeast 340 391 17,600 1,850 Climbing Jacksonville Center
Tue 08:05:10 AM 33.5469 -79.7500 25° Northeast 350 403 19,100 1,800 Climbing Jacksonville Center
Tue 08:06:10 AM 33.6436 -79.6942 26° Northeast 362 417 21,200 1,900 Climbing Jacksonville Center
Tue 08:07:10 AM 33.7400 -79.6358 27° Northeast 373 429 22,900 1,600 Climbing Jacksonville Center
Tue 08:08:10 AM 33.8408 -79.5769 26° Northeast 386 444 24,400 1,650 Climbing Jacksonville Center
Tue 08:09:10 AM 33.9517 -79.5128 26° Northeast 386 444 26,200 1,432 Climbing Jacksonville Center
Tue 08:10:45 AM 34.1042 -79.4264 25° Northeast 407 468 28,100 1,423 Climbing Washington Center
Tue 08:11:46 AM 34.2083 -79.3636 26° Northeast 412 474 29,900 1,815 Climbing Washington Center
Tue 08:12:44 AM 34.3253 -79.2911 27° Northeast 412 474 31,700 1,563 Climbing Washington Center
Tue 08:13:45 AM 34.4272 -79.2328 25° Northeast 412 474 33,000 645 Climbing Washington Center
Tue 08:14:45 AM 34.5336 -79.1694 26° Northeast 412 474 33,000  Level Washington Center
Tue 08:15:46 AM 34.6356 -79.1081 26° Northeast 412 474 33,000  Level Washington Center
Tue 08:16:44 AM 34.7397 -79.0444 27° Northeast 412 474 33,000  Level Washington Center
Tue 08:17:45 AM 34.8414 -78.9831 26° Northeast 412 474 33,000  Level Washington Center
Tue 08:18:46 AM 34.9456 -78.9214 26° Northeast 412 474 33,000  Level Washington Center
Tue 08:19:44 AM 35.0472 -78.8597 26° Northeast 412 474 33,000  Level Washington Center
Tue 08:20:44 AM 35.1533 -78.7953 26° Northeast 412 474 33,000  Level Washington Center
Tue 08:21:45 AM 35.2594 -78.7308 26° Northeast 412 474 33,000 -198 Level Washington Center
Tue 08:22:45 AM 35.3653 -78.6689 26° Northeast 412 474 32,600 -793 Descending Washington Center
Tue 08:23:46 AM 35.4608 -78.6089 27° Northeast 412 474 31,400 -1,279 Descending Washington Center
Tue 08:24:47 AM 35.5775 -78.5364 27° Northeast 417 480 30,000 -1,271 Descending Washington Center
Tue 08:25:44 AM 35.6769 -78.4764 26° Northeast 417 480 28,900 -1,169 Descending Washington Center
Tue 08:26:45 AM 35.7806 -78.4133 26° Northeast 417 480 27,700 -934 Descending Washington Center
Tue 08:27:46 AM 35.8822 -78.3506 27° Northeast 411 473 27,000 -353 Descending Washington Center
Tue 08:28:44 AM 35.9903 -78.2850 26° Northeast 411 473 27,000  Level Washington Center
Tue 08:29:45 AM 36.0917 -78.2217 27° Northeast 411 473 27,000  Level Washington Center
Tue 08:30:46 AM 36.1953 -78.1556 27° Northeast 411 473 27,000  Level Washington Center
Tue 08:31:46 AM 36.3011 -78.0869 28° Northeast 416 479 27,000  Level Washington Center
Tue 08:32:44 AM 36.4069 -78.0231 26° Northeast 416 479 27,000  Level Washington Center
Tue 08:33:44 AM 36.5125 -77.9539 28° Northeast 416 479 27,000 -443 Level Washington Center
Tue 08:34:46 AM 36.6203 -77.8875 26° Northeast 416 479 26,100 -1,200 Descending Washington Center
Tue 08:35:44 AM 36.7236 -77.8206 27° Northeast 416 479 24,600 -1,475 Descending Washington Center
Tue 08:36:44 AM 36.8250 -77.7558 27° Northeast 411 473 23,200 -1,300 Descending Washington Center
Tue 08:37:44 AM 36.9264 -77.6911 27° Northeast 411 473 22,000 -595 Descending Washington Center
Tue 08:38:45 AM 37.0253 -77.6342 25° Northeast 405 466 22,000  Level Washington Center
Tue 08:39:45 AM 37.1283 -77.5950 17° North 394 453 22,000  Level Washington Center
Tue 08:40:44 AM 37.2289 -77.5586 16° North 389 448 22,000  Level Washington Center
Tue 08:41:45 AM 37.3319 -77.5169 18° North 384 442 22,000  Level Washington Center
Tue 08:42:46 AM 37.4325 -77.4828 15° North 379 436 22,000  Level Washington Center
Tue 08:43:46 AM 37.5311 -77.4458 17° North 374 430 22,000 -150 Level Washington Center
Tue 08:44:46 AM 37.6297 -77.4089 17° North 369 425 21,700 -1,160 Descending Washington Center
Tue 08:45:45 AM 37.7261 -77.3719 17° North 363 418 19,700 -1,850 Descending Washington Center
Tue 08:46:46 AM 37.8206 -77.3347 17° North 358 412 18,000 -1,537 Descending Washington Center
Tue 08:47:46 AM 37.9086 -77.3025 16° North 342 394 16,600 -1,538 Descending Washington Center
Tue 08:48:43 AM 37.9967 -77.2675 17° North 336 387 15,000 -1,576 Descending Washington Center
Tue 08:49:44 AM 38.0828 -77.2378 15° North 325 374 13,500 -1,475 Descending Washington Center
Tue 08:50:45 AM 38.1644 -77.2081 16° North 315 362 12,000 -1,488 Descending Washington Center
Tue 08:51:45 AM 38.2442 -77.1753 18° North 309 356 10,500 -1,008 Descending Washington Center
Tue 08:52:44 AM 38.3300 -77.1506 13° North 303 349 10,000 -252 Descending Washington Center
Tue 08:53:44 AM 38.4114 -77.1339 North 303 349 10,000  Level Washington Center
Tue 08:54:45 AM 38.4889 -77.1169 10° North 292 336 10,000 -295 Level Washington Center
Tue 08:55:46 AM 38.5661 -77.1000 10° North 287 330 9,400 -508 Descending Washington Center
Tue 08:56:43 AM 38.6394 -77.0828 10° North 276 318 9,000 -151 Descending Washington Center
Tue 08:57:45 AM 38.7167 -77.0603 13° North 276 318 9,100 -51 Climbing Washington Center
Tue 08:58:41 AM 38.7833 -76.9833 42° Northeast 312 359 8,900 -103 Descending Potomac TRACON
Tue 08:59:41 AM 38.8667 -76.9500 17° North 268 308 8,900  Level Potomac TRACON
Tue 09:00:41 AM 38.9167 -76.9500 360° North 206 237 8,900 -400 Level Potomac TRACON
Tue 09:01:41 AM 38.9667 -76.9833 333° Northwest 173 199 8,100 -1,148 Descending Potomac TRACON
Tue 09:02:36 AM 39.0000 -77.0167 322° Northwest 164 189 6,700 -1,513 Descending Potomac TRACON
Tue 09:03:36 AM 39.0333 -77.0500 322° Northwest 158 182 5,200 -1,700 Descending Potomac TRACON
Tue 09:04:36 AM 39.0667 -77.1000 311° West 171 197 3,300 -1,150 Descending Potomac TRACON
Tue 09:05:36 AM 39.0667 -77.1333 270° West 154 177 2,900 -200 Descending Potomac TRACON
Tue 09:06:36 AM 39.0500 -77.1667 237° Southwest 149 171 2,900  Level Potomac TRACON
Tue 09:07:30 AM 39.0000 -77.1667 180° South 169 194 2,900 -211 Level Potomac TRACON
Tue 09:08:30 AM 38.9500 -77.1333 153° Southeast 174 200 2,500 -650 Descending Potomac TRACON
Tue 09:09:30 AM 38.9167 -77.1000 142° Southeast 154 177 1,600 -850 Descending Potomac TRACON
Tue 09:10:30 AM 38.9000 -77.0667 123° Southeast 138 159 800 -800 Descending Potomac TRACON

Login

Don't have an account? Register now (free) for customized features, flight alerts, and more!